Time;durP1;ratioP1;P1;durP2;ratioP2;P2;SDS_P1;SDS_P2;PMS_P1;PMS_P2;Temp;Humidity;BMP_temperature;BMP_pressure;BME280_temperature;BME280_humidity;BME280_pressure;Samples;Min_cycle;Max_cycle;Signal;HPM_P1;HPM_P2
2022/05/26 00:01:45;;;;;;;2.40;2.20;;;13.00;99.90;;;13.71;75.50;98367.31;5144573;28;20229;-52
2022/05/26 00:04:20;;;;;;;2.63;2.42;;;12.90;99.90;;;13.65;76.29;98379.81;5148773;28;20621;-52
2022/05/26 00:06:53;;;;;;;2.40;2.08;;;12.90;99.90;;;13.63;76.91;98373.72;5140757;28;20730;-55
2022/05/26 00:09:26;;;;;;;2.22;2.10;;;12.90;99.90;;;13.60;75.36;98381.28;5147628;28;20201;-55
2022/05/26 00:12:00;;;;;;;2.33;2.22;;;12.80;99.90;;;13.39;76.86;98379.31;5152362;28;20277;-52
2022/05/26 00:14:33;;;;;;;2.60;2.40;;;12.50;99.90;;;13.13;74.79;98374.38;5146978;28;20309;-51
2022/05/26 00:17:07;;;;;;;2.17;2.00;;;12.40;99.90;;;13.19;76.23;98379.84;5144331;28;20217;-60
2022/05/26 00:19:42;;;;;;;2.25;2.15;;;12.30;99.90;;;13.13;77.12;98379.50;5173598;28;20287;-60
2022/05/26 00:22:15;;;;;;;4.07;2.28;;;12.30;99.90;;;13.11;76.45;98376.00;5129722;28;20223;-60
2022/05/26 00:24:49;;;;;;;2.30;2.10;;;12.30;99.90;;;13.16;76.71;98379.69;5167672;28;20228;-60
2022/05/26 00:27:22;;;;;;;2.28;2.17;;;12.40;99.90;;;13.17;76.99;98384.91;5128198;28;20702;-60
2022/05/26 00:29:55;;;;;;;3.00;2.50;;;12.40;99.90;;;13.15;77.68;98388.19;5136382;28;20274;-59
2022/05/26 00:32:29;;;;;;;3.10;2.20;;;12.40;99.90;;;13.21;77.15;98394.53;5137661;28;20208;-59
2022/05/26 00:35:04;;;;;;;2.33;2.13;;;12.40;99.90;;;13.18;78.76;98384.09;5156130;28;20630;-57
2022/05/26 00:37:37;;;;;;;2.63;2.42;;;12.50;99.90;;;13.20;77.83;98386.75;5175842;28;20251;-60
2022/05/26 00:40:13;;;;;;;3.35;3.08;;;12.50;99.90;;;13.15;76.63;98391.63;5148338;28;20294;-59
2022/05/26 00:42:47;;;;;;;2.58;2.47;;;12.40;99.90;;;13.10;77.92;98390.50;5154869;28;20287;-59
2022/05/26 00:45:20;;;;;;;2.70;2.50;;;12.30;99.90;;;13.03;77.34;98394.41;5150700;28;20247;-60
2022/05/26 00:47:53;;;;;;;2.80;2.60;;;12.30;99.90;;;12.84;76.63;98391.59;5153859;28;20267;-57
2022/05/26 00:50:31;;;;;;;3.95;3.50;;;12.10;99.90;;;12.89;77.11;98386.75;5118348;28;20732;-60
2022/05/26 00:53:16;;;;;;;4.38;3.58;;;12.10;99.90;;;12.79;77.79;98393.91;5144144;28;20235;-60
2022/05/26 00:55:56;;;;;;;3.15;2.83;;;12.00;99.90;;;12.72;77.25;98396.91;5142215;28;20254;-59
2022/05/26 00:58:38;;;;;;;3.63;2.88;;;11.90;99.90;;;12.70;78.14;98392.50;5123408;28;20236;-59
2022/05/26 01:01:17;;;;;;;2.90;2.70;;;11.90;99.90;;;12.69;78.34;98388.16;5123684;28;20208;-60
2022/05/26 01:03:54;;;;;;;2.83;2.53;;;11.90;99.90;;;12.71;79.11;98389.16;5128422;28;20295;-60
2022/05/26 01:06:34;;;;;;;3.08;2.58;;;12.00;99.90;;;12.79;80.37;98385.31;5158988;28;20248;-60
2022/05/26 01:09:08;;;;;;;2.67;2.50;;;12.10;99.90;;;12.75;79.05;98391.09;5143579;28;20660;-59
2022/05/26 01:11:43;;;;;;;2.30;2.20;;;12.10;99.90;;;12.79;78.61;98393.91;5160852;28;20288;-59
2022/05/26 01:14:21;;;;;;;3.03;2.83;;;12.10;99.90;;;12.71;79.41;98384.91;5124515;28;20205;-60
2022/05/26 01:17:07;;;;;;;2.92;2.70;;;12.00;99.90;;;12.77;79.31;98382.69;5131032;28;20315;-59
2022/05/26 01:20:42;;;;;;;2.50;2.30;;;12.00;99.90;;;12.91;79.21;98387.72;5172582;28;20650;-56
2022/05/26 01:24:09;;;;;;;2.80;2.60;;;12.20;99.90;;;12.91;78.35;98378.34;5115444;28;20328;-56
2022/05/26 01:27:24;;;;;;;3.25;2.30;;;12.20;99.90;;;12.82;80.15;98382.94;5173278;28;20264;-54
2022/05/26 01:30:23;;;;;;;3.17;2.80;;;12.20;99.90;;;12.85;78.76;98388.25;5135672;28;20236;-56
2022/05/26 01:33:34;;;;;;;2.85;2.65;;;12.10;99.90;;;12.83;79.48;98379.56;5150285;28;20232;-56
2022/05/26 01:36:20;;;;;;;3.08;2.78;;;12.10;99.90;;;12.80;79.49;98381.97;5151107;28;20250;-56
2022/05/26 01:39:07;;;;;;;3.20;2.50;;;12.10;99.90;;;12.64;78.58;98377.63;5148521;28;20714;-54
2022/05/26 01:42:08;;;;;;;2.55;2.35;;;11.90;99.90;;;12.47;79.07;98384.34;5166279;28;20250;-55
2022/05/26 01:44:53;;;;;;;2.60;2.25;;;11.70;99.90;;;12.45;79.86;98385.97;5119111;28;20204;-56
2022/05/26 01:47:43;;;;;;;2.38;2.28;;;11.70;99.90;;;12.47;80.05;98384.34;5117213;28;20366;-54
2022/05/26 01:50:25;;;;;;;2.40;2.30;;;11.70;99.90;;;12.50;80.27;98384.53;5116440;28;20209;-53
2022/05/26 01:53:21;;;;;;;2.35;2.25;;;11.80;99.90;;;12.47;80.56;98379.22;5112569;28;20259;-54
2022/05/26 01:56:04;;;;;;;3.10;2.80;;;11.70;99.90;;;12.52;80.52;98388.06;5132818;28;20193;-57
2022/05/26 01:58:41;;;;;;;2.70;2.20;;;11.80;99.90;;;12.49;80.44;98387.03;5127986;28;20327;-58
2022/05/26 02:01:20;;;;;;;2.58;2.30;;;11.80;99.90;;;12.39;80.13;98383.06;5118386;28;20299;-54
2022/05/26 02:03:56;;;;;;;2.70;2.50;;;11.70;99.90;;;12.24;80.15;98384.69;5114260;28;20672;-51
2022/05/26 02:06:35;;;;;;;2.90;2.65;;;11.50;99.90;;;12.24;80.70;98389.81;5149622;28;20407;-51
2022/05/26 02:09:12;;;;;;;2.75;2.58;;;11.50;99.90;;;12.27;80.89;98390.00;5141482;28;20204;-58
2022/05/26 02:11:50;;;;;;;3.13;2.50;;;11.50;99.90;;;12.33;82.62;98390.34;5150406;28;20201;-56
2022/05/26 02:14:32;;;;;;;3.40;2.67;;;11.70;99.90;;;12.38;81.36;98391.50;5143821;28;20672;-56
2022/05/26 02:17:11;;;;;;;2.90;2.67;;;11.70;99.90;;;12.39;81.04;98391.63;5126310;28;20252;-57
2022/05/26 02:19:49;;;;;;;2.40;2.20;;;11.70;99.90;;;12.36;81.51;98390.53;5132653;28;20258;-56
2022/05/26 02:22:29;;;;;;;2.78;2.45;;;11.70;99.90;;;12.32;81.41;98388.59;5134510;28;20208;-58
2022/05/26 02:25:09;;;;;;;2.58;2.47;;;11.60;99.90;;;12.28;82.02;98397.78;5172655;28;20189;-55
2022/05/26 02:27:42;;;;;;;2.70;2.50;;;11.60;99.90;;;12.33;81.48;98391.25;5127509;28;20680;-58
2022/05/26 02:30:15;;;;;;;2.63;2.40;;;11.60;99.90;;;12.34;81.50;98393.03;5123547;28;20228;-58
2022/05/26 02:32:52;;;;;;;4.93;2.50;;;11.70;99.90;;;12.31;81.04;98397.97;5148012;28;20228;-57
2022/05/26 02:35:28;;;;;;;2.60;2.40;;;11.50;99.90;;;12.31;80.91;98402.22;5122264;28;20197;-57
2022/05/26 02:38:09;;;;;;;2.70;2.50;;;11.50;99.90;;;12.26;81.24;98389.13;5121123;28;20224;-57
2022/05/26 02:40:42;;;;;;;2.80;2.60;;;11.50;99.90;;;12.27;81.95;98405.38;5122646;28;20684;-57
2022/05/26 02:43:19;;;;;;;3.17;2.60;;;11.50;99.90;;;12.21;81.65;98399.91;5121843;28;20570;-58
2022/05/26 02:46:06;;;;;;;2.97;2.78;;;11.40;99.90;;;12.20;82.60;98393.88;5123516;28;20648;-57
2022/05/26 02:49:03;;;;;;;2.80;2.60;;;11.50;99.90;;;12.10;83.14;98392.47;5130575;28;20212;-55
2022/05/26 02:51:44;;;;;;;2.78;2.60;;;11.40;99.90;;;12.09;82.17;98392.38;5121147;28;20683;-57
2022/05/26 02:54:32;;;;;;;3.92;2.47;;;11.40;99.90;;;12.05;81.95;98393.88;5126817;28;21472;-56
2022/05/26 02:57:15;;;;;;;2.38;2.20;;;11.30;99.90;;;12.03;82.45;98394.56;5126481;28;20216;-59
2022/05/26 03:00:05;;;;;;;5.20;2.65;;;11.30;99.90;;;12.07;82.40;98394.81;5119888;28;20307;-58
2022/05/26 03:02:47;;;;;;;3.05;2.38;;;11.30;99.90;;;12.01;82.68;98397.03;5133837;28;20220;-58
2022/05/26 03:05:24;;;;;;;2.97;2.78;;;11.30;99.90;;;12.03;82.63;98395.44;5137244;28;20308;-59
2022/05/26 03:08:00;;;;;;;3.10;2.80;;;11.30;99.90;;;11.93;82.22;98408.47;5119476;28;20270;-60
2022/05/26 03:10:36;;;;;;;2.83;2.63;;;11.20;99.90;;;11.90;82.23;98395.50;5123919;28;20227;-59
2022/05/26 03:13:09;;;;;;;3.13;2.90;;;11.10;99.90;;;11.83;82.94;98391.66;5123149;28;20250;-59
2022/05/26 03:15:42;;;;;;;2.78;2.58;;;11.20;99.90;;;11.82;82.72;98402.69;5124951;28;20205;-58
2022/05/26 03:18:15;;;;;;;3.08;2.70;;;11.10;99.90;;;11.83;83.52;98403.56;5130711;28;20260;-57
2022/05/26 03:20:48;;;;;;;2.97;2.78;;;11.20;99.90;;;11.85;82.69;98404.56;5117458;28;20311;-54
2022/05/26 03:23:21;;;;;;;2.78;2.55;;;11.10;99.90;;;11.83;82.72;98401.00;5120246;28;20625;-54
2022/05/26 03:25:57;;;;;;;3.08;2.88;;;11.10;99.90;;;11.78;83.22;98394.72;5120786;28;20251;-50
2022/05/26 03:28:31;;;;;;;2.92;2.70;;;11.10;99.90;;;11.78;82.73;98412.66;5123293;28;20201;-55
2022/05/26 03:31:09;;;;;;;3.20;2.90;;;11.00;99.90;;;11.80;82.32;98403.41;5122402;28;20648;-53
2022/05/26 03:42:17;;;;;;;4.40;2.80;;;10.80;99.90;;;11.53;82.94;98411.13;5121601;28;20251;-57
2022/05/26 03:44:51;;;;;;;2.95;2.75;;;10.90;99.90;;;11.56;84.15;98415.56;5116512;28;20228;-57
2022/05/26 03:47:24;;;;;;;3.78;2.50;;;10.90;99.90;;;11.50;83.17;98416.97;5125152;28;20651;-57
2022/05/26 03:49:57;;;;;;;2.85;2.65;;;10.80;99.90;;;11.46;84.19;98420.09;5119740;28;20208;-56
2022/05/26 03:52:30;;;;;;;2.60;2.50;;;10.70;99.90;;;11.48;83.74;98413.41;5123651;28;20228;-58
2022/05/26 03:55:05;;;;;;;2.80;2.58;;;10.80;99.90;;;11.52;84.26;98418.72;5120689;28;20220;-57
2022/05/26 03:57:40;;;;;;;2.63;2.42;;;10.80;99.90;;;11.54;83.67;98412.91;5120573;28;20714;-58
2022/05/26 04:00:18;;;;;;;3.35;2.63;;;10.80;99.90;;;11.47;83.52;98424.47;5118860;28;20529;-55
2022/05/26 04:02:51;;;;;;;2.72;2.53;;;10.70;99.90;;;11.35;83.67;98436.47;5120223;28;20242;-58
2022/05/26 04:05:24;;;;;;;2.40;2.20;;;10.60;99.90;;;11.28;83.50;98435.19;5119585;28;20233;-57
2022/05/26 04:07:57;;;;;;;2.22;2.13;;;10.50;99.90;;;11.24;83.25;98433.22;5122925;28;20307;-54
2022/05/26 04:10:31;;;;;;;2.83;2.63;;;10.50;99.90;;;11.31;84.79;98438.75;5121749;28;20197;-55
2022/05/26 04:13:05;;;;;;;2.85;2.75;;;10.60;99.90;;;11.37;84.52;98441.69;5123109;28;20205;-58
2022/05/26 04:15:38;;;;;;;2.70;2.60;;;10.70;99.90;;;11.53;83.38;98440.97;5123985;28;20238;-54
2022/05/26 04:18:12;;;;;;;2.67;2.47;;;10.80;99.90;;;11.56;83.84;98442.06;5119103;28;20217;-55
2022/05/26 04:20:45;;;;;;;3.60;3.30;;;10.90;99.90;;;11.58;84.46;98447.25;5123469;28;20636;-58
2022/05/26 04:23:18;;;;;;;2.85;2.75;;;10.90;99.90;;;11.64;84.87;98445.09;5123874;28;20236;-53
2022/05/26 04:25:51;;;;;;;3.60;3.00;;;11.00;99.90;;;11.72;84.41;98449.00;5124324;28;20205;-57
2022/05/26 04:28:26;;;;;;;3.30;2.88;;;11.00;99.90;;;11.75;84.38;98450.88;5122806;28;20258;-55
2022/05/26 04:30:59;;;;;;;2.30;2.20;;;11.10;99.90;;;11.87;83.68;98455.09;5120514;28;20200;-54
2022/05/26 04:33:33;;;;;;;4.35;2.50;;;11.20;99.90;;;11.93;84.54;98459.72;5126111;28;20219;-57
2022/05/26 04:36:07;;;;;;;2.88;2.67;;;11.20;99.90;;;11.98;83.38;98454.88;5120987;28;20201;-54
2022/05/26 04:38:40;;;;;;;2.50;2.30;;;11.30;99.90;;;12.02;83.15;98465.44;5127231;28;20205;-57
2022/05/26 04:41:16;;;;;;;2.40;2.30;;;11.30;99.90;;;12.15;82.66;98467.91;5122076;28;20252;-57
2022/05/26 04:43:51;;;;;;;3.20;2.92;;;11.30;99.90;;;12.23;81.77;98464.94;5123228;28;20270;-57
2022/05/26 04:46:24;;;;;;;3.65;2.58;;;11.30;99.90;;;12.31;81.79;98464.63;5130036;28;21318;-56
2022/05/26 04:48:58;;;;;;;2.65;2.30;;;11.40;99.90;;;12.42;82.25;98465.25;5119946;28;20239;-56
2022/05/26 04:51:31;;;;;;;2.70;2.42;;;11.60;99.90;;;12.51;83.34;98463.25;5125153;28;20201;-58
2022/05/26 04:54:07;;;;;;;2.63;2.25;;;11.70;99.90;;;12.75;81.36;98470.59;5114536;28;20240;-57
2022/05/26 04:56:40;;;;;;;2.90;2.55;;;11.90;99.90;;;13.04;79.60;98470.59;5126945;28;20297;-55
2022/05/26 04:59:14;;;;;;;2.75;2.55;;;12.10;99.90;;;13.32;78.28;98463.63;5117319;28;20216;-58
2022/05/26 05:01:47;;;;;;;3.33;2.22;;;12.30;99.90;;;13.55;78.22;98472.59;5133484;28;20368;-57
2022/05/26 05:04:24;;;;;;;2.90;2.47;;;12.60;99.90;;;13.79;76.09;98478.19;5118242;28;20255;-56
2022/05/26 05:06:58;;;;;;;2.72;2.45;;;12.90;99.90;;;13.75;75.44;98478.00;5116025;28;20228;-58
2022/05/26 05:09:31;;;;;;;3.25;1.95;;;12.80;99.90;;;14.09;74.01;98468.66;5115839;28;20295;-57
2022/05/26 05:12:06;;;;;;;2.30;2.20;;;13.00;99.90;;;14.37;72.90;98478.72;5122768;28;20193;-58
2022/05/26 05:14:44;;;;;;;3.05;2.20;;;13.10;99.90;;;14.76;72.20;98485.03;5121317;28;20233;-58
2022/05/26 05:17:20;;;;;;;2.13;2.03;;;13.60;99.90;;;15.35;71.14;98481.09;5118729;28;20248;-57
2022/05/26 05:19:53;;;;;;;2.28;2.08;;;14.30;99.90;;;16.15;68.08;98482.28;5124789;28;20281;-57
2022/05/26 05:22:32;;;;;;;2.25;1.95;;;15.00;99.90;;;17.00;65.27;98485.16;5147236;28;20252;-59
2022/05/26 05:25:11;;;;;;;2.00;1.90;;;15.90;99.90;;;17.39;62.73;98486.72;5112340;28;20224;-58
2022/05/26 05:27:49;;;;;;;2.13;1.90;;;16.30;99.90;;;18.04;60.44;98479.81;5123575;28;20703;-58
2022/05/26 05:30:28;;;;;;;2.88;2.15;;;16.80;99.90;;;18.57;59.11;98488.63;5118734;28;20242;-59
2022/05/26 05:33:06;;;;;;;2.08;1.90;;;17.20;99.90;;;19.13;57.35;98487.16;5114129;28;20227;-57
2022/05/26 05:35:44;;;;;;;2.30;2.10;;;17.60;99.90;;;19.42;56.53;98484.63;5148873;28;20625;-59
2022/05/26 05:38:19;;;;;;;1.90;1.80;;;17.90;99.90;;;19.88;55.57;98492.16;5136756;28;20282;-58
2022/05/26 05:40:52;;;;;;;2.20;2.10;;;18.30;99.90;;;20.14;54.45;98486.88;5153732;28;20312;-56
2022/05/26 05:43:26;;;;;;;1.92;1.83;;;18.60;99.80;;;20.40;53.74;98492.81;5126880;28;20196;-57
2022/05/26 05:46:01;;;;;;;1.95;1.83;;;18.60;99.30;;;20.67;52.75;98492.75;5115812;28;20243;-57
2022/05/26 05:48:36;;;;;;;2.20;1.90;;;18.70;99.10;;;20.78;50.85;98493.94;5147203;28;20597;-57
2022/05/26 05:51:09;;;;;;;2.35;1.65;;;18.80;97.50;;;20.89;51.00;98507.22;5125509;28;20660;-57
2022/05/26 05:53:44;;;;;;;1.73;1.63;;;18.80;97.70;;;21.29;49.11;98501.31;5139373;28;20240;-58
2022/05/26 05:56:17;;;;;;;1.63;1.45;;;19.30;96.40;;;21.54;48.18;98502.81;5115400;28;20934;-59
2022/05/26 05:58:51;;;;;;;1.75;1.58;;;19.50;95.80;;;21.71;47.36;98499.75;5133522;28;20224;-58
2022/05/26 06:01:26;;;;;;;1.75;1.60;;;19.60;95.30;;;21.89;46.55;98500.19;5124943;28;20731;-58
2022/05/26 06:03:59;;;;;;;2.28;1.80;;;19.80;94.70;;;22.15;46.08;98498.16;5115263;28;20557;-59
2022/05/26 06:06:37;;;;;;;1.50;1.40;;;19.90;94.50;;;22.35;45.66;98498.59;5119777;28;20220;-59
2022/05/26 06:09:13;;;;;;;2.15;1.52;;;20.00;94.20;;;22.78;44.53;98502.03;5117117;28;20200;-59
2022/05/26 06:11:46;;;;;;;2.03;1.60;;;20.20;93.40;;;22.84;43.56;98507.38;5118922;28;20661;-58
2022/05/26 06:14:19;;;;;;;1.40;1.30;;;20.50;92.80;;;23.01;43.20;98505.13;5122482;28;20244;-59
2022/05/26 06:16:53;;;;;;;2.78;1.35;;;20.50;92.70;;;23.19;41.94;98504.56;5122009;28;20272;-59
2022/05/26 06:19:27;;;;;;;2.30;1.30;;;20.60;91.90;;;23.40;42.58;98498.81;5118959;28;20655;-58
2022/05/26 06:22:00;;;;;;;1.60;1.50;;;20.80;92.30;;;23.70;41.53;98506.28;5118976;28;20270;-58
2022/05/26 06:24:33;;;;;;;2.13;1.30;;;21.00;91.60;;;24.31;40.46;98513.22;5131732;28;20687;-58
2022/05/26 06:29:55;;;;;;;1.85;1.00;;;21.80;90.30;;;23.95;40.56;98511.84;5114980;28;20700;-59
2022/05/26 06:38:11;;;;;;;2.22;1.17;;;20.20;91.00;;;21.98;43.84;98507.31;5148394;28;20306;-57
2022/05/26 06:40:44;;;;;;;1.30;1.20;;;19.80;91.80;;;21.50;44.50;98515.72;5120752;28;20200;-60
2022/05/26 06:43:18;;;;;;;1.98;1.30;;;19.40;92.00;;;21.19;45.79;98520.13;5120167;28;20231;-57
2022/05/26 06:45:51;;;;;;;1.83;1.20;;;19.30;92.70;;;20.73;46.90;98524.09;5119406;28;20600;-55
2022/05/26 06:48:26;;;;;;;2.25;1.30;;;19.00;92.90;;;20.51;47.89;98527.78;5121881;28;20204;-58
2022/05/26 06:50:59;;;;;;;1.73;1.40;;;18.70;93.80;;;20.39;47.64;98530.03;5132777;28;20228;-59
2022/05/26 06:53:32;;;;;;;1.70;1.40;;;18.60;93.50;;;20.06;49.15;98530.81;5115679;28;20657;-58
2022/05/26 06:56:05;;;;;;;1.95;1.33;;;18.40;94.30;;;19.94;49.57;98533.00;5118896;28;20232;-59
2022/05/26 06:58:38;;;;;;;1.45;1.35;;;18.30;94.60;;;19.91;49.38;98538.97;5129466;28;20198;-58
2022/05/26 07:01:18;;;;;;;1.15;1.05;;;18.30;94.40;;;19.82;49.77;98532.63;5127923;28;20196;-59
2022/05/26 07:03:53;;;;;;;1.83;1.15;;;18.30;94.60;;;19.78;50.19;98537.72;5122744;28;20746;-60
2022/05/26 07:06:29;;;;;;;2.70;1.58;;;18.30;94.90;;;19.84;50.48;98543.94;5131433;28;20232;-59
2022/05/26 07:09:02;;;;;;;3.33;1.50;;;18.40;95.30;;;19.77;51.22;98533.38;5117951;28;20239;-59
2022/05/26 07:11:35;;;;;;;1.98;1.30;;;18.40;95.00;;;19.85;50.76;98543.09;5143472;28;20573;-58
2022/05/26 07:14:08;;;;;;;1.33;1.23;;;18.50;94.80;;;20.07;50.02;98545.53;5125201;28;20231;-60
2022/05/26 07:16:44;;;;;;;1.67;1.58;;;18.50;94.70;;;20.05;50.08;98547.19;5122409;28;20647;-60
2022/05/26 07:19:19;;;;;;;1.88;1.40;;;18.50;94.70;;;20.01;50.56;98553.13;5124579;28;20676;-59
2022/05/26 07:21:53;;;;;;;1.45;1.00;;;18.50;95.20;;;19.91;50.21;98548.47;5122443;28;20306;-60
2022/05/26 07:24:26;;;;;;;3.15;1.50;;;18.40;94.80;;;19.98;49.54;98555.63;5124699;28;20205;-59
2022/05/26 07:27:00;;;;;;;2.75;1.50;;;18.50;94.50;;;19.92;49.83;98551.13;5113589;28;20278;-56
2022/05/26 07:29:34;;;;;;;2.00;1.58;;;18.50;94.70;;;20.02;49.67;98552.28;5122066;28;20196;-57
2022/05/26 07:32:08;;;;;;;1.55;1.30;;;18.60;94.30;;;19.95;49.61;98559.00;5119916;28;20326;-60
2022/05/26 07:34:43;;;;;;;1.90;1.40;;;18.60;94.10;;;19.82;49.71;98558.56;5118625;28;21507;-60
2022/05/26 07:42:59;;;;;;;1.50;1.20;;;18.70;94.50;;;19.86;50.90;98566.50;5130339;28;20267;-57
2022/05/26 07:45:32;;;;;;;2.08;1.40;;;18.60;94.80;;;19.83;51.14;98562.91;5141345;28;20213;-57
2022/05/26 07:48:06;;;;;;;1.75;1.50;;;18.60;94.90;;;19.94;50.30;98565.00;5135674;28;20268;-58
2022/05/26 07:50:41;;;;;;;1.48;1.38;;;18.70;94.50;;;20.07;50.78;98576.69;5120934;28;20236;-56
2022/05/26 07:53:14;;;;;;;2.55;1.33;;;18.90;95.00;;;20.34;50.73;98560.16;5139484;28;20231;-52
2022/05/26 07:55:52;;;;;;;4.47;1.40;;;19.20;94.70;;;20.40;50.11;98568.13;5124865;28;20254;-56
2022/05/26 07:58:25;;;;;;;1.75;1.40;;;19.20;94.50;;;20.53;49.24;98566.84;5123517;28;20213;-53
2022/05/26 08:00:58;;;;;;;1.65;1.30;;;19.30;94.20;;;20.51;50.03;98577.13;5124087;28;20255;-57
2022/05/26 08:03:32;;;;;;;1.80;1.40;;;19.30;94.20;;;20.78;48.52;98574.50;5138720;28;20225;-56
2022/05/26 08:06:08;;;;;;;1.70;1.38;;;19.50;93.70;;;20.74;49.19;98574.34;5118356;28;20925;-57
2022/05/26 08:08:42;;;;;;;2.17;1.45;;;19.60;93.70;;;20.99;49.38;98578.53;5120604;28;20292;-57
2022/05/26 08:11:15;;;;;;;1.67;1.23;;;19.70;94.00;;;21.12;48.05;98580.63;5122952;28;20205;-57
2022/05/26 08:13:48;;;;;;;1.65;1.55;;;19.90;93.20;;;21.35;48.08;98584.69;5129412;28;20278;-59
2022/05/26 08:16:21;;;;;;;2.70;2.50;;;20.00;93.20;;;21.35;47.66;98586.44;5128152;28;20769;-59
2022/05/26 08:18:54;;;;;;;2.97;1.85;;;20.10;92.70;;;21.34;46.93;98576.84;5149301;28;20274;-57
2022/05/26 08:21:29;;;;;;;1.60;1.42;;;19.90;92.80;;;21.40;47.11;98587.44;5118987;28;20201;-58
2022/05/26 08:24:02;;;;;;;1.45;1.30;;;20.00;92.70;;;21.44;46.80;98593.63;5124737;28;20277;-58
2022/05/26 08:26:35;;;;;;;2.80;1.50;;;20.10;92.60;;;21.54;46.66;98586.06;5155538;28;20593;-59
2022/05/26 08:29:09;;;;;;;3.10;1.13;;;20.30;92.20;;;21.74;46.31;98588.28;5114740;28;21249;-58
2022/05/26 08:31:42;;;;;;;1.48;1.35;;;20.50;92.10;;;22.05;45.63;98577.75;5118167;28;20263;-58
2022/05/26 08:34:16;;;;;;;1.88;1.30;;;20.80;91.50;;;22.25;45.09;98586.06;5117622;28;20665;-59
2022/05/26 08:36:51;;;;;;;1.40;1.10;;;20.90;91.30;;;22.23;45.05;98584.25;5121067;28;20681;-58
2022/05/26 08:39:24;;;;;;;2.47;1.23;;;20.90;91.40;;;22.26;44.16;98585.25;5126355;28;20369;-59
2022/05/26 08:41:57;;;;;;;2.13;1.13;;;20.90;90.80;;;22.37;43.84;98587.19;5117889;28;20303;-58
2022/05/26 08:44:34;;;;;;;1.25;1.10;;;21.00;90.40;;;22.39;43.65;98591.59;5142146;28;20224;-58
2022/05/26 08:47:11;;;;;;;1.20;1.00;;;21.10;90.10;;;22.38;44.09;98587.22;5115016;28;20722;-55
2022/05/26 08:49:52;;;;;;;1.45;1.35;;;21.10;90.40;;;22.65;43.09;98586.94;5114869;28;20307;-58
2022/05/26 08:52:34;;;;;;;4.07;1.20;;;21.30;89.90;;;22.74;42.77;98588.84;5116956;28;20201;-58
2022/05/26 08:55:15;;;;;;;1.65;1.20;;;21.40;89.70;;;22.87;43.22;98583.03;5112482;28;20220;-58
2022/05/26 08:57:54;;;;;;;1.33;1.20;;;21.60;89.50;;;22.98;42.45;98590.22;5112443;28;20700;-58
2022/05/26 09:00:28;;;;;;;2.20;1.10;;;21.80;88.10;;;23.05;41.78;98590.38;5127798;28;20611;-58
2022/05/26 09:03:03;;;;;;;1.30;1.20;;;22.00;87.10;;;23.11;42.29;98587.00;5107880;28;20224;-59
2022/05/26 09:05:41;;;;;;;3.15;1.63;;;21.90;88.10;;;23.23;41.79;98589.81;5112145;28;20754;-55
2022/05/26 09:14:25;;;;;;;2.42;2.15;;;21.60;88.20;;;22.78;42.43;98597.59;5088583;28;20218;-59
2022/05/26 09:17:02;;;;;;;1.48;1.38;;;21.40;88.10;;;22.68;43.10;98602.63;5072057;28;20222;-59
2022/05/26 09:19:50;;;;;;;1.80;1.50;;;21.10;90.00;;;22.03;44.41;98605.50;5086571;28;20231;-59
2022/05/26 09:22:31;;;;;;;1.65;1.55;;;20.70;90.30;;;21.99;44.24;98602.78;5114917;28;20288;-57
2022/05/26 09:25:10;;;;;;;1.25;1.15;;;20.60;90.60;;;21.90;44.39;98593.03;5113821;28;20220;-55
2022/05/26 09:27:52;;;;;;;2.00;1.30;;;20.40;90.70;;;21.87;45.03;98610.31;5131415;28;20286;-59
2022/05/26 09:30:29;;;;;;;1.55;1.05;;;20.50;91.10;;;21.85;45.49;98607.66;5118180;28;20208;-58
2022/05/26 09:33:18;;;;;;;1.95;1.10;;;20.60;91.10;;;21.86;46.54;98604.19;5117731;28;20648;-57
2022/05/26 09:35:51;;;;;;;1.10;1.00;;;20.70;91.50;;;21.89;45.91;98604.31;5117883;28;20304;-57
2022/05/26 09:38:32;;;;;;;1.05;1.05;;;20.70;91.30;;;22.29;45.03;98593.94;5125656;28;20329;-58
2022/05/26 09:41:08;;;;;;;1.30;1.20;;;21.00;90.90;;;22.34;44.81;98598.41;5118594;28;20306;-59
2022/05/26 09:43:49;;;;;;;1.40;1.30;;;21.10;90.70;;;22.11;44.92;98599.59;5116026;28;20264;-55
2022/05/26 09:46:26;;;;;;;1.40;1.10;;;20.90;90.70;;;22.12;45.34;98597.03;5109593;28;20283;-57
2022/05/26 09:49:08;;;;;;;3.47;3.17;;;20.80;91.10;;;22.13;45.75;98604.00;5115090;28;20196;-58
2022/05/26 09:51:44;;;;;;;1.98;1.40;;;20.80;91.20;;;22.00;45.59;98618.44;5134676;28;20213;-58
2022/05/26 09:54:26;;;;;;;1.30;1.20;;;20.70;91.10;;;21.94;45.43;98614.81;5116476;28;20227;-59
2022/05/26 09:57:17;;;;;;;3.92;3.35;;;20.60;91.20;;;21.95;45.93;98617.47;5140381;28;20656;-56
2022/05/26 09:59:51;;;;;;;3.28;2.28;;;20.70;91.30;;;22.03;45.65;98623.75;5111436;28;20603;-59
2022/05/26 10:02:29;;;;;;;4.15;2.40;;;20.80;91.20;;;22.18;45.91;98611.97;5123385;28;20251;-56
2022/05/26 10:05:10;;;;;;;15.77;14.30;;;21.00;91.00;;;22.31;45.61;98605.28;5126337;28;20223;-55
2022/05/26 10:08:01;;;;;;;2.30;2.10;;;21.10;91.40;;;22.25;45.11;98606.03;5117225;28;20224;-58
2022/05/26 10:10:42;;;;;;;1.83;1.48;;;21.20;90.70;;;22.34;45.25;98610.56;5115338;28;20208;-57
2022/05/26 10:13:32;;;;;;;2.22;1.30;;;21.10;90.80;;;22.44;44.26;98610.81;5153225;28;20670;-57
2022/05/26 10:16:13;;;;;;;3.65;3.35;;;21.20;90.20;;;22.62;44.93;98617.25;5115418;28;20300;-59
2022/05/26 10:19:05;;;;;;;5.90;4.38;;;21.30;91.00;;;22.57;44.38;98622.38;5116361;28;20247;-57
2022/05/26 10:22:01;;;;;;;9.23;8.32;;;21.40;90.40;;;22.69;44.10;98619.13;5133434;28;20230;-57
2022/05/26 10:25:09;;;;;;;6.53;5.93;;;21.30;90.20;;;22.51;43.67;98621.38;5151849;28;20256;-59
2022/05/26 10:27:59;;;;;;;13.05;11.75;;;21.10;89.70;;;22.41;44.13;98623.78;5115427;28;20228;-55
2022/05/26 10:30:44;;;;;;;32.00;29.08;;;21.00;90.30;;;22.33;44.64;98614.91;5128163;28;20757;-58
2022/05/26 10:33:39;;;;;;;4.45;4.07;;;21.00;90.70;;;22.39;44.78;98622.84;5105098;28;20295;-59
2022/05/26 10:36:24;;;;;;;3.20;2.67;;;21.00;90.90;;;22.32;45.24;98627.88;5105730;28;20244;-57
2022/05/26 10:39:10;;;;;;;4.53;2.95;;;20.90;90.60;;;22.22;46.07;98629.41;5103730;28;20303;-58
2022/05/26 10:41:49;;;;;;;1.63;1.40;;;20.90;91.60;;;21.73;46.04;98633.38;5116937;28;20292;-54
2022/05/26 10:44:30;;;;;;;2.25;1.27;;;20.60;91.00;;;21.71;46.47;98635.94;5133436;28;20255;-56
2022/05/26 10:47:17;;;;;;;1.73;1.40;;;20.40;91.50;;;21.55;47.59;98639.88;5124083;28;20353;-56
2022/05/26 10:49:59;;;;;;;2.25;1.77;;;20.30;92.00;;;21.40;48.23;98639.47;5128853;28;20225;-56
2022/05/26 10:52:38;;;;;;;2.33;1.52;;;20.20;92.70;;;21.36;48.20;98640.19;5138025;28;20201;-56
2022/05/26 10:55:16;;;;;;;1.63;1.40;;;20.10;92.60;;;21.19;48.99;98633.66;5130500;28;20247;-56
2022/05/26 10:57:56;;;;;;;2.00;1.65;;;19.90;93.00;;;20.98;49.00;98634.81;5138874;28;20267;-59
2022/05/26 11:00:31;;;;;;;1.50;1.40;;;19.80;93.10;;;20.83;50.12;98623.97;5122123;28;20236;-56
2022/05/26 11:03:13;;;;;;;1.27;1.17;;;19.60;93.80;;;20.75;51.04;98630.69;5144394;28;20618;-55
2022/05/26 11:05:50;;;;;;;3.38;1.52;;;19.60;94.20;;;20.65;50.53;98627.81;5115193;28;20304;-56
2022/05/26 11:08:35;;;;;;;2.20;1.45;;;19.60;94.00;;;20.76;50.14;98627.25;5116260;28;20247;-55
2022/05/26 11:11:15;;;;;;;1.60;1.50;;;19.50;93.80;;;20.65;49.96;98630.41;5113717;28;20216;-54
2022/05/26 11:13:55;;;;;;;3.53;1.50;;;19.50;93.60;;;20.50;50.85;98629.91;5117359;28;20219;-53
2022/05/26 11:19:39;;;;;;;1.92;1.17;;;19.30;94.40;;;20.50;51.44;98629.91;5115003;28;20232;-53
2022/05/26 11:22:15;;;;;;;3.33;1.40;;;19.30;94.80;;;20.58;51.07;98628.47;5114976;28;20200;-53
2022/05/26 11:24:50;;;;;;;2.65;1.50;;;19.50;94.50;;;20.65;51.17;98630.41;5116281;28;20311;-55
2022/05/26 11:27:30;;;;;;;2.63;1.63;;;19.60;94.40;;;20.89;50.87;98627.66;5127379;28;20227;-55
2022/05/26 11:36:07;;;;;;;2.17;1.88;;;19.80;94.30;;;21.18;49.78;98631.91;5123572;28;20262;-57
2022/05/26 11:36:11;;;;;;;2.15;1.50;;;20.20;93.10;;;21.34;49.27;98631.47;5116309;28;20205;-55
2022/05/26 11:38:48;;;;;;;2.05;1.60;;;20.20;93.10;;;21.42;49.43;98629.97;5114201;28;20240;-56
2022/05/26 11:41:29;;;;;;;1.95;1.50;;;20.30;93.40;;;21.58;48.85;98632.16;5119592;28;20236;-55